Time;durP1;ratioP1;P1;durP2;ratioP2;P2;SDS_P1;SDS_P2;PMS_P1;PMS_P2;Temp;Humidity;BMP_temperature;BMP_pressure;BME280_temperature;BME280_humidity;BME280_pressure;Samples;Min_cycle;Max_cycle;Signal;HPM_P1;HPM_P2
2023/12/24 00:00:45;;;;;;;1.20;0.80;;;8.80;99.90;;;;;;5051733;28;20460;-47
2023/12/24 00:03:13;;;;;;;2.50;1.00;;;8.80;99.90;;;;;;5052212;28;20440;-48
2023/12/24 00:05:42;;;;;;;2.27;1.00;;;8.80;99.90;;;;;;5049824;28;20558;-47
2023/12/24 00:08:10;;;;;;;1.83;1.10;;;8.80;99.90;;;;;;5051540;28;20452;-46
2023/12/24 00:10:38;;;;;;;2.30;1.03;;;8.80;99.90;;;;;;5050433;28;21009;-47
2023/12/24 00:13:06;;;;;;;1.77;1.00;;;8.80;99.90;;;;;;5054639;28;20447;-45
2023/12/24 00:15:34;;;;;;;2.10;1.10;;;8.80;99.90;;;;;;5048543;28;21022;-45
2023/12/24 00:18:03;;;;;;;2.07;0.73;;;8.80;99.90;;;;;;5043836;28;20433;-45
2023/12/24 00:20:31;;;;;;;2.20;0.90;;;8.80;99.90;;;;;;5055126;28;20488;-47
2023/12/24 00:23:09;;;;;;;1.50;0.93;;;8.80;99.90;;;;;;5050158;28;20439;-48
2023/12/24 00:25:38;;;;;;;2.43;0.87;;;8.80;99.90;;;;;;5049472;28;20477;-46
2023/12/24 00:28:07;;;;;;;2.50;0.80;;;8.80;99.90;;;;;;5051503;28;20443;-47
2023/12/24 00:30:35;;;;;;;1.40;0.73;;;8.80;99.90;;;;;;5048078;28;20608;-48
2023/12/24 00:33:04;;;;;;;1.50;0.97;;;8.80;99.90;;;;;;5047441;28;20479;-48
2023/12/24 00:35:33;;;;;;;1.90;0.80;;;8.80;99.90;;;;;;5050388;28;20686;-47
2023/12/24 00:38:02;;;;;;;1.77;0.83;;;8.80;99.90;;;;;;5045309;28;20455;-45
2023/12/24 00:40:31;;;;;;;1.50;0.87;;;8.80;99.90;;;;;;5051437;28;20465;-48
2023/12/24 00:43:01;;;;;;;1.77;0.97;;;8.80;99.90;;;;;;5037075;28;20462;-49
2023/12/24 00:45:30;;;;;;;1.73;0.97;;;8.80;99.90;;;;;;5047851;28;20541;-48
2023/12/24 00:47:59;;;;;;;1.43;0.90;;;8.80;99.90;;;;;;5048614;28;20869;-48
2023/12/24 00:50:28;;;;;;;1.50;0.90;;;8.80;99.90;;;;;;5050213;28;20536;-46
2023/12/24 00:52:56;;;;;;;1.50;0.80;;;8.80;99.90;;;;;;5037902;28;20470;-46
2023/12/24 00:55:24;;;;;;;1.83;0.93;;;8.80;99.90;;;;;;5052286;28;20462;-47
2023/12/24 00:57:54;;;;;;;2.90;0.90;;;8.80;99.90;;;;;;5042027;28;20439;-49
2023/12/24 01:00:23;;;;;;;1.93;0.70;;;8.80;99.90;;;;;;5049327;28;20463;-46
2023/12/24 01:02:51;;;;;;;1.87;0.90;;;8.80;99.90;;;;;;5045564;28;20464;-46
2023/12/24 01:05:19;;;;;;;2.03;0.80;;;8.80;99.90;;;;;;5037254;28;20874;-47
2023/12/24 01:07:48;;;;;;;1.90;0.80;;;8.80;99.90;;;;;;5041082;28;20455;-47
2023/12/24 01:10:16;;;;;;;3.23;0.90;;;8.80;99.90;;;;;;5059363;28;20485;-47
2023/12/24 01:12:45;;;;;;;1.70;0.90;;;8.80;99.90;;;;;;5044837;28;20926;-47
2023/12/24 01:15:14;;;;;;;1.37;0.77;;;8.80;99.90;;;;;;5045574;28;20471;-49
2023/12/24 01:17:42;;;;;;;1.50;0.70;;;8.80;99.90;;;;;;5046158;28;20990;-44
2023/12/24 01:20:14;;;;;;;2.13;0.90;;;8.80;99.90;;;;;;5047605;28;20691;-49
2023/12/24 01:22:43;;;;;;;2.13;0.70;;;8.80;99.90;;;;;;5044526;28;20536;-47
2023/12/24 01:25:13;;;;;;;1.70;0.87;;;8.80;99.90;;;;;;5051202;28;20466;-49
2023/12/24 01:27:41;;;;;;;1.10;0.60;;;8.80;99.90;;;;;;5047507;28;20445;-46
2023/12/24 01:30:12;;;;;;;1.70;1.00;;;8.80;99.90;;;;;;5046833;28;20854;-48
2023/12/24 01:32:41;;;;;;;1.97;0.77;;;8.80;99.90;;;;;;5048255;28;20443;-46
2023/12/24 01:35:09;;;;;;;1.77;1.00;;;8.80;99.90;;;;;;5046658;28;20520;-47
2023/12/24 01:37:37;;;;;;;2.67;0.60;;;8.80;99.90;;;;;;5038947;28;20467;-48
2023/12/24 01:40:07;;;;;;;1.30;0.70;;;8.80;99.90;;;;;;5050504;28;20470;-48
2023/12/24 01:42:35;;;;;;;1.20;0.60;;;8.80;99.90;;;;;;5048154;28;20963;-47
2023/12/24 01:45:03;;;;;;;1.20;0.70;;;8.80;99.90;;;;;;5052968;28;20487;-47
2023/12/24 01:47:32;;;;;;;1.50;0.80;;;8.80;99.90;;;;;;5051838;28;20521;-46
2023/12/24 01:50:02;;;;;;;1.33;0.70;;;8.80;99.90;;;;;;5046888;28;20460;-49
2023/12/24 01:52:31;;;;;;;1.50;0.70;;;8.80;99.90;;;;;;5048137;28;20438;-48
2023/12/24 01:54:59;;;;;;;1.10;0.50;;;8.80;99.90;;;;;;5045593;28;20571;-46
2023/12/24 01:57:29;;;;;;;1.10;0.60;;;8.80;99.90;;;;;;5050920;28;20429;-46
2023/12/24 01:59:58;;;;;;;1.63;0.80;;;8.80;99.90;;;;;;5046151;28;20472;-47
2023/12/24 02:02:28;;;;;;;1.30;0.53;;;8.80;99.90;;;;;;5047004;28;20456;-50
2023/12/24 02:04:56;;;;;;;1.37;0.60;;;8.80;99.90;;;;;;5046305;28;20480;-47
2023/12/24 02:07:28;;;;;;;1.10;0.50;;;8.80;99.90;;;;;;5047334;28;20446;-48
2023/12/24 02:09:56;;;;;;;1.20;0.60;;;8.80;99.90;;;;;;5047973;28;21004;-48
2023/12/24 02:12:24;;;;;;;1.40;0.63;;;8.80;99.90;;;;;;5046885;28;20478;-46
2023/12/24 02:14:53;;;;;;;1.10;0.50;;;8.80;99.90;;;;;;5047764;28;20537;-45
2023/12/24 02:17:23;;;;;;;1.80;0.60;;;8.80;99.90;;;;;;5054014;28;20431;-50
2023/12/24 02:19:52;;;;;;;3.00;1.00;;;8.80;99.90;;;;;;5043557;28;20468;-46
2023/12/24 02:22:21;;;;;;;1.90;0.50;;;8.80;99.90;;;;;;5043165;28;20464;-48
2023/12/24 02:24:49;;;;;;;0.97;0.50;;;8.80;99.90;;;;;;5032072;28;20476;-47
2023/12/24 02:27:23;;;;;;;1.10;0.40;;;8.80;99.90;;;;;;5058503;28;20797;-50
2023/12/24 02:29:53;;;;;;;1.00;0.50;;;8.80;99.90;;;;;;5044146;28;20474;-48
2023/12/24 02:32:23;;;;;;;1.43;0.50;;;8.80;99.90;;;;;;5046466;28;21002;-45
2023/12/24 02:34:54;;;;;;;1.60;0.73;;;8.80;99.90;;;;;;5050358;28;20524;-47
2023/12/24 02:37:25;;;;;;;1.93;0.80;;;8.80;99.90;;;;;;5047501;28;20845;-50
2023/12/24 02:39:53;;;;;;;1.20;0.40;;;8.80;99.90;;;;;;5050511;28;20497;-47
2023/12/24 02:42:21;;;;;;;1.20;0.50;;;8.80;99.90;;;;;;5043216;28;20437;-49
2023/12/24 02:44:49;;;;;;;1.50;0.80;;;8.80;99.90;;;;;;5051243;28;20459;-47
2023/12/24 02:47:17;;;;;;;1.13;0.53;;;8.80;99.90;;;;;;5058733;28;20486;-47
2023/12/24 02:49:45;;;;;;;1.30;0.60;;;8.80;99.90;;;;;;5050289;28;20472;-46
2023/12/24 02:52:13;;;;;;;1.10;0.60;;;8.80;99.90;;;;;;5051296;28;20538;-48
2023/12/24 02:54:42;;;;;;;2.10;0.50;;;8.80;99.90;;;;;;5051402;28;20464;-48
2023/12/24 02:57:10;;;;;;;1.00;0.50;;;8.80;99.90;;;;;;5058058;28;20759;-46
2023/12/24 02:59:38;;;;;;;1.30;0.77;;;8.80;99.90;;;;;;5051862;28;20466;-50
2023/12/24 03:02:07;;;;;;;1.17;0.47;;;8.80;99.90;;;;;;5050184;28;20803;-46
2023/12/24 03:04:35;;;;;;;1.27;0.43;;;8.80;99.90;;;;;;5050432;28;20505;-46
2023/12/24 03:07:03;;;;;;;1.10;0.50;;;8.80;99.90;;;;;;5052483;28;20462;-48
2023/12/24 03:09:31;;;;;;;1.27;0.50;;;8.80;99.90;;;;;;5052672;28;20454;-46
2023/12/24 03:12:01;;;;;;;1.23;0.60;;;8.80;99.90;;;;;;5050089;28;21172;-46
2023/12/24 03:14:29;;;;;;;1.67;0.67;;;8.80;99.90;;;;;;5047122;28;20438;-48
2023/12/24 03:16:57;;;;;;;0.90;0.40;;;8.80;99.90;;;;;;5052965;28;20941;-45
2023/12/24 03:19:25;;;;;;;1.00;0.50;;;8.80;99.90;;;;;;5057766;28;21069;-48
2023/12/24 03:21:54;;;;;;;1.50;0.47;;;8.80;99.90;;;;;;5056699;28;20439;-48
2023/12/24 03:24:22;;;;;;;0.90;0.40;;;8.80;99.90;;;;;;5050731;28;20423;-47
2023/12/24 03:26:51;;;;;;;1.40;0.57;;;8.80;99.90;;;;;;5051387;28;20439;-48
2023/12/24 03:29:20;;;;;;;1.53;0.53;;;8.80;99.90;;;;;;5053811;28;20507;-48
2023/12/24 03:31:48;;;;;;;1.20;0.50;;;8.80;99.90;;;;;;5055399;28;20464;-49
2023/12/24 03:34:17;;;;;;;1.30;0.60;;;8.80;99.90;;;;;;5055469;28;20475;-47
2023/12/24 03:36:45;;;;;;;1.27;0.50;;;8.80;99.90;;;;;;5050691;28;20488;-47
2023/12/24 03:39:14;;;;;;;1.00;0.40;;;8.80;99.90;;;;;;5052565;28;20468;-49
2023/12/24 03:41:43;;;;;;;1.20;0.70;;;8.80;99.90;;;;;;5053970;28;20454;-50
2023/12/24 03:44:11;;;;;;;1.00;0.37;;;8.80;99.90;;;;;;5048345;28;20458;-49
2023/12/24 03:46:41;;;;;;;2.20;0.50;;;8.80;99.90;;;;;;5053032;28;20442;-46
2023/12/24 03:49:10;;;;;;;1.20;0.60;;;8.80;99.90;;;;;;5056235;28;20477;-48
2023/12/24 03:51:38;;;;;;;0.90;0.40;;;8.80;99.90;;;;;;5046365;28;20464;-48
2023/12/24 03:54:07;;;;;;;1.33;0.37;;;8.80;99.90;;;;;;5052881;28;20522;-46
2023/12/24 03:56:35;;;;;;;1.30;0.53;;;8.80;99.90;;;;;;5058159;28;20620;-48
2023/12/24 03:59:03;;;;;;;1.87;1.07;;;8.80;99.90;;;;;;5043707;28;20586;-51
2023/12/24 04:01:32;;;;;;;1.10;0.50;;;8.80;99.90;;;;;;5054243;28;20550;-50
2023/12/24 04:04:02;;;;;;;0.93;0.40;;;8.80;99.90;;;;;;5047034;28;20534;-48
2023/12/24 04:06:31;;;;;;;1.40;0.60;;;8.80;99.90;;;;;;5054796;28;20478;-46
2023/12/24 04:08:59;;;;;;;1.10;0.40;;;8.80;99.90;;;;;;5047690;28;20477;-47
2023/12/24 04:11:28;;;;;;;1.20;0.53;;;8.80;99.90;;;;;;5058420;28;20492;-47
2023/12/24 04:13:57;;;;;;;1.00;0.37;;;8.80;99.90;;;;;;5058425;28;20929;-49
2023/12/24 04:16:25;;;;;;;1.10;0.40;;;8.80;99.90;;;;;;5056532;28;20507;-46
2023/12/24 04:18:53;;;;;;;1.40;0.40;;;8.80;99.90;;;;;;5044621;28;20452;-49
2023/12/24 04:21:23;;;;;;;0.97;0.43;;;8.80;99.90;;;;;;5061055;28;20461;-50
2023/12/24 04:23:51;;;;;;;1.00;0.47;;;8.80;99.90;;;;;;5041247;28;20930;-47
2023/12/24 04:26:19;;;;;;;1.20;0.70;;;8.80;99.90;;;;;;5049664;28;20462;-46
2023/12/24 04:28:47;;;;;;;1.00;0.40;;;8.80;99.90;;;;;;5050782;28;20454;-46
2023/12/24 04:31:15;;;;;;;1.00;0.40;;;8.80;99.90;;;;;;5067554;28;20937;-48
2023/12/24 04:33:44;;;;;;;0.93;0.40;;;8.80;99.90;;;;;;5041320;28;20470;-47
2023/12/24 04:36:18;;;;;;;1.00;0.40;;;8.80;99.90;;;;;;5051525;28;20467;-47
2023/12/24 04:38:47;;;;;;;1.03;0.50;;;8.80;99.90;;;;;;5048747;28;20438;-45
2023/12/24 04:41:16;;;;;;;0.90;0.40;;;8.80;99.90;;;;;;5050318;28;21309;-46
2023/12/24 04:43:45;;;;;;;1.00;0.50;;;8.80;99.90;;;;;;5043983;28;20435;-48
2023/12/24 04:46:13;;;;;;;1.30;0.50;;;8.80;99.90;;;;;;5051375;28;20467;-46
2023/12/24 04:48:41;;;;;;;0.90;0.40;;;8.80;99.90;;;;;;5055333;28;20867;-47
2023/12/24 04:51:11;;;;;;;1.20;0.50;;;8.80;99.90;;;;;;5047787;28;20463;-48
2023/12/24 04:53:39;;;;;;;0.90;0.40;;;8.80;99.90;;;;;;5050646;28;20466;-48
2023/12/24 04:56:20;;;;;;;1.00;0.50;;;8.80;99.90;;;;;;5053186;28;20459;-46
2023/12/24 04:58:50;;;;;;;1.00;0.40;;;8.80;99.90;;;;;;5040886;28;20487;-46
2023/12/24 05:01:19;;;;;;;1.10;0.40;;;8.80;99.90;;;;;;5047806;28;20458;-48
2023/12/24 05:03:47;;;;;;;0.90;0.40;;;8.80;99.90;;;;;;5055908;28;20445;-47
2023/12/24 05:06:15;;;;;;;1.10;0.50;;;8.80;99.90;;;;;;5052457;28;20458;-47
2023/12/24 05:08:43;;;;;;;0.90;0.30;;;8.80;99.90;;;;;;5048492;28;20450;-48
2023/12/24 05:11:11;;;;;;;1.00;0.40;;;8.80;99.90;;;;;;5054871;28;20814;-47
2023/12/24 05:13:41;;;;;;;1.10;0.60;;;8.80;99.90;;;;;;5043101;28;20460;-47
2023/12/24 05:16:09;;;;;;;1.10;0.50;;;8.80;99.90;;;;;;5052855;28;20463;-49
2023/12/24 05:18:37;;;;;;;1.00;0.50;;;8.80;99.90;;;;;;5054994;28;20505;-47
2023/12/24 05:21:06;;;;;;;0.90;0.30;;;8.80;99.90;;;;;;5056924;28;20981;-47
2023/12/24 05:23:34;;;;;;;0.90;0.40;;;8.80;99.90;;;;;;5049215;28;20466;-46
2023/12/24 05:26:02;;;;;;;0.90;0.30;;;8.80;99.90;;;;;;5051806;28;20464;-47
2023/12/24 05:28:30;;;;;;;1.00;0.40;;;8.80;99.90;;;;;;5042088;28;20883;-48
2023/12/24 05:31:00;;;;;;;1.07;0.50;;;8.80;99.90;;;;;;5057941;28;20467;-46
2023/12/24 05:33:28;;;;;;;0.90;0.33;;;8.80;99.90;;;;;;5054522;28;20585;-46
2023/12/24 05:35:57;;;;;;;1.00;0.43;;;8.80;99.90;;;;;;5056896;28;20520;-47
2023/12/24 05:38:25;;;;;;;0.90;0.30;;;8.80;99.90;;;;;;5045018;28;20447;-47
2023/12/24 05:40:53;;;;;;;1.00;0.47;;;8.80;99.90;;;;;;5054136;28;20470;-50
2023/12/24 05:43:21;;;;;;;0.90;0.40;;;8.80;99.90;;;;;;5040428;28;20434;-49
2023/12/24 05:45:50;;;;;;;0.90;0.40;;;8.80;99.90;;;;;;5053378;28;20452;-50
2023/12/24 05:48:19;;;;;;;1.10;0.33;;;8.80;99.90;;;;;;5059222;28;20862;-47
2023/12/24 05:50:47;;;;;;;0.90;0.40;;;8.80;99.90;;;;;;5054341;28;20468;-49
2023/12/24 05:53:15;;;;;;;0.90;0.37;;;8.80;99.90;;;;;;5046193;28;20462;-50
2023/12/24 05:55:44;;;;;;;1.17;0.47;;;8.80;99.90;;;;;;5046734;28;20862;-51
2023/12/24 05:58:12;;;;;;;1.00;0.40;;;8.80;99.90;;;;;;5046484;28;20455;-48
2023/12/24 06:00:40;;;;;;;0.90;0.37;;;8.80;99.90;;;;;;5055536;28;20502;-49
2023/12/24 06:03:08;;;;;;;1.30;0.40;;;8.80;99.90;;;;;;5056208;28;20423;-47
2023/12/24 06:05:37;;;;;;;0.90;0.40;;;8.80;99.90;;;;;;5056869;28;20462;-46
2023/12/24 06:08:06;;;;;;;1.10;0.40;;;8.80;99.90;;;;;;5043436;28;20827;-47
2023/12/24 06:10:34;;;;;;;1.30;0.50;;;8.80;99.90;;;;;;5059097;28;20462;-47
2023/12/24 06:13:03;;;;;;;1.00;0.40;;;8.80;99.90;;;;;;5052608;28;20460;-47
2023/12/24 06:15:31;;;;;;;0.90;0.40;;;8.80;99.90;;;;;;5056969;28;20453;-46
2023/12/24 06:18:00;;;;;;;0.90;0.30;;;8.80;99.90;;;;;;5062226;28;20432;-47
2023/12/24 06:20:29;;;;;;;0.90;0.30;;;8.80;99.90;;;;;;5064080;28;20491;-48
2023/12/24 06:22:59;;;;;;;0.90;0.40;;;8.80;99.90;;;;;;5041433;28;20442;-46
2023/12/24 06:25:28;;;;;;;0.90;0.30;;;8.80;99.90;;;;;;5057241;28;20465;-47
2023/12/24 06:27:56;;;;;;;1.43;0.40;;;8.80;99.90;;;;;;5047517;28;20516;-47
2023/12/24 06:30:24;;;;;;;0.90;0.30;;;8.80;99.90;;;;;;5051428;28;20471;-46
2023/12/24 06:32:52;;;;;;;0.90;0.40;;;8.80;99.90;;;;;;5049591;28;20471;-48
2023/12/24 06:35:22;;;;;;;2.17;0.50;;;8.80;99.90;;;;;;5044982;28;20474;-48
2023/12/24 06:37:50;;;;;;;1.00;0.40;;;8.80;99.90;;;;;;5043301;28;20501;-45
2023/12/24 06:40:19;;;;;;;1.00;0.43;;;8.80;99.90;;;;;;5057208;28;20809;-48
2023/12/24 06:42:48;;;;;;;1.00;0.30;;;8.80;99.90;;;;;;5051283;28;20451;-46
2023/12/24 06:45:16;;;;;;;0.90;0.40;;;8.80;99.90;;;;;;5059065;28;21076;-48
2023/12/24 06:47:44;;;;;;;1.03;0.30;;;8.80;99.90;;;;;;5045932;28;20420;-47
2023/12/24 06:50:12;;;;;;;0.90;0.40;;;8.80;99.90;;;;;;5044624;28;20463;-46
2023/12/24 06:52:40;;;;;;;0.90;0.30;;;8.80;99.90;;;;;;5047119;28;20430;-47
2023/12/24 06:55:09;;;;;;;0.90;0.30;;;8.80;99.90;;;;;;5052022;28;20978;-47
2023/12/24 06:57:38;;;;;;;0.90;0.37;;;8.80;99.90;;;;;;5040445;28;20497;-48
2023/12/24 07:00:07;;;;;;;0.90;0.30;;;8.80;99.90;;;;;;5055794;28;20475;-47
2023/12/24 07:02:35;;;;;;;0.93;0.30;;;8.80;99.90;;;;;;5050681;28;20432;-48
2023/12/24 07:05:04;;;;;;;0.90;0.33;;;8.80;99.90;;;;;;5053628;28;20987;-47
2023/12/24 07:07:32;;;;;;;0.90;0.40;;;8.80;99.90;;;;;;5044830;28;20454;-47
2023/12/24 07:10:00;;;;;;;1.00;0.40;;;8.80;99.90;;;;;;5050661;28;20487;-45
2023/12/24 07:12:31;;;;;;;0.90;0.30;;;8.80;99.90;;;;;;5053818;28;20420;-47
2023/12/24 07:15:00;;;;;;;1.00;0.50;;;8.80;99.90;;;;;;5057021;28;20463;-49
2023/12/24 07:17:28;;;;;;;0.97;0.37;;;8.80;99.90;;;;;;5048697;28;20426;-49
2023/12/24 07:19:57;;;;;;;0.90;0.30;;;8.80;99.90;;;;;;5054672;28;20455;-49
2023/12/24 07:22:25;;;;;;;1.17;0.40;;;8.80;99.90;;;;;;5050481;28;20525;-48
2023/12/24 07:24:53;;;;;;;1.87;0.30;;;8.80;99.90;;;;;;5060535;28;20459;-46
2023/12/24 07:27:21;;;;;;;1.10;0.40;;;8.80;99.90;;;;;;5049779;28;20430;-48
2023/12/24 07:29:49;;;;;;;0.90;0.40;;;8.80;99.90;;;;;;5045587;28;20809;-48
2023/12/24 07:32:19;;;;;;;2.23;0.40;;;8.90;99.90;;;;;;5056500;28;21211;-49
2023/12/24 07:34:47;;;;;;;0.97;0.37;;;8.80;99.90;;;;;;5057370;28;20851;-47
2023/12/24 07:37:15;;;;;;;0.90;0.30;;;8.80;99.90;;;;;;5043012;28;20443;-46
2023/12/24 07:39:43;;;;;;;0.90;0.30;;;8.80;99.90;;;;;;5044989;28;20473;-45
2023/12/24 07:42:11;;;;;;;0.93;0.37;;;8.80;99.90;;;;;;5051562;28;20443;-47
2023/12/24 07:44:39;;;;;;;1.00;0.37;;;8.80;99.90;;;;;;5061131;28;20454;-47
2023/12/24 07:47:07;;;;;;;1.10;0.50;;;8.80;99.90;;;;;;5050430;28;20440;-45
2023/12/24 07:49:37;;;;;;;0.90;0.30;;;8.80;99.90;;;;;;5049307;28;20835;-48
2023/12/24 07:52:06;;;;;;;1.03;0.37;;;8.80;99.90;;;;;;5044002;28;20439;-47
2023/12/24 07:54:34;;;;;;;1.20;0.30;;;8.80;99.90;;;;;;5060654;28;20470;-49
2023/12/24 07:57:04;;;;;;;1.10;0.40;;;8.80;99.90;;;;;;5051504;28;20456;-48
2023/12/24 07:59:32;;;;;;;1.03;0.40;;;8.80;99.90;;;;;;5041837;28;20464;-47
2023/12/24 08:02:01;;;;;;;1.30;0.30;;;8.80;99.90;;;;;;5060223;28;20801;-46
2023/12/24 08:04:29;;;;;;;1.00;0.40;;;8.80;99.90;;;;;;5059743;28;20466;-46
2023/12/24 08:06:59;;;;;;;1.00;0.40;;;8.80;99.90;;;;;;5047578;28;20496;-46
2023/12/24 08:09:27;;;;;;;1.10;0.40;;;8.80;99.90;;;;;;5054273;28;20438;-47
2023/12/24 08:11:55;;;;;;;0.90;0.40;;;8.80;99.90;;;;;;5049438;28;20687;-46
2023/12/24 08:14:23;;;;;;;1.00;0.40;;;8.80;99.90;;;;;;5053831;28;20470;-46
2023/12/24 08:16:51;;;;;;;0.90;0.40;;;8.80;99.90;;;;;;5050000;28;20798;-45
2023/12/24 08:19:19;;;;;;;0.90;0.30;;;8.80;99.90;;;;;;5053850;28;20462;-45
2023/12/24 08:21:47;;;;;;;0.90;0.30;;;8.80;99.90;;;;;;5050089;28;20459;-46
2023/12/24 08:24:17;;;;;;;1.20;0.67;;;8.80;99.90;;;;;;5051147;28;20440;-48
2023/12/24 08:26:45;;;;;;;0.90;0.40;;;8.80;99.90;;;;;;5050652;28;20511;-47
2023/12/24 08:29:13;;;;;;;0.90;0.40;;;8.80;99.90;;;;;;5041887;28;20912;-48
2023/12/24 08:31:41;;;;;;;1.20;0.37;;;8.80;99.90;;;;;;5051034;28;20491;-46
2023/12/24 08:34:10;;;;;;;1.00;0.40;;;8.80;99.90;;;;;;5051680;28;20472;-47
2023/12/24 08:36:38;;;;;;;0.90;0.40;;;8.80;99.90;;;;;;5048248;28;20485;-46
2023/12/24 08:39:08;;;;;;;0.87;0.30;;;8.90;99.90;;;;;;5041592;28;20574;-49
2023/12/24 08:41:38;;;;;;;1.20;0.30;;;8.80;99.90;;;;;;5052414;28;20458;-47
2023/12/24 08:44:07;;;;;;;0.90;0.30;;;8.80;99.90;;;;;;5042967;28;20526;-50
2023/12/24 08:46:35;;;;;;;1.00;0.40;;;8.80;99.90;;;;;;5048731;28;20447;-45
2023/12/24 08:49:03;;;;;;;1.00;0.30;;;8.80;99.90;;;;;;5040085;28;20462;-48
2023/12/24 08:51:31;;;;;;;0.90;0.30;;;8.90;99.90;;;;;;5040272;28;20478;-50
2023/12/24 08:53:59;;;;;;;0.90;0.30;;;8.90;99.90;;;;;;5047804;28;20427;-46
2023/12/24 08:56:27;;;;;;;1.20;0.50;;;8.90;99.90;;;;;;5043193;28;20460;-47
2023/12/24 08:58:57;;;;;;;0.90;0.30;;;8.90;99.90;;;;;;5039333;28;20459;-46
2023/12/24 09:01:25;;;;;;;1.00;0.40;;;8.90;99.90;;;;;;5043652;28;20693;-49
2023/12/24 09:03:53;;;;;;;1.00;0.40;;;8.90;99.90;;;;;;5053262;28;20475;-47
2023/12/24 09:06:21;;;;;;;0.90;0.30;;;8.90;99.90;;;;;;5045085;28;21031;-47
2023/12/24 09:08:49;;;;;;;1.00;0.40;;;8.90;99.90;;;;;;5045866;28;20470;-48
2023/12/24 09:11:18;;;;;;;1.20;0.33;;;8.80;99.90;;;;;;5058248;28;20481;-46
2023/12/24 09:13:46;;;;;;;0.90;0.30;;;8.90;99.90;;;;;;5046360;28;20685;-47
2023/12/24 09:16:15;;;;;;;1.10;0.40;;;8.90;99.90;;;;;;5042718;28;20467;-47
2023/12/24 09:18:43;;;;;;;0.90;0.30;;;8.90;99.90;;;;;;5055864;28;20796;-49
2023/12/24 09:21:11;;;;;;;0.90;0.30;;;8.90;99.90;;;;;;5047860;28;20474;-46
2023/12/24 09:23:40;;;;;;;0.90;0.30;;;8.90;99.90;;;;;;5042326;28;20450;-47
2023/12/24 09:26:08;;;;;;;0.90;0.30;;;8.90;99.90;;;;;;5048227;28;20467;-48
2023/12/24 09:28:36;;;;;;;0.90;0.30;;;8.90;99.90;;;;;;5036574;28;20972;-47
2023/12/24 09:31:04;;;;;;;0.90;0.30;;;8.90;99.90;;;;;;5050946;28;20467;-49
2023/12/24 09:33:34;;;;;;;0.90;0.30;;;8.90;99.90;;;;;;5058970;28;20430;-50
2023/12/24 09:36:07;;;;;;;1.67;0.40;;;8.90;99.90;;;;;;5051254;28;20479;-47
2023/12/24 09:38:35;;;;;;;1.00;0.30;;;8.90;99.90;;;;;;5051289;28;20452;-47
2023/12/24 09:41:03;;;;;;;0.90;0.30;;;8.90;99.90;;;;;;5046367;28;20460;-48
2023/12/24 09:43:33;;;;;;;0.90;0.30;;;8.90;99.90;;;;;;5042089;28;20545;-46
2023/12/24 09:46:01;;;;;;;1.23;0.60;;;8.90;99.90;;;;;;5043069;28;20463;-46
2023/12/24 09:48:29;;;;;;;0.90;0.40;;;8.90;99.90;;;;;;5052540;28;20426;-47
2023/12/24 09:50:59;;;;;;;1.20;0.30;;;8.90;99.90;;;;;;5044332;28;20469;-48
2023/12/24 09:53:27;;;;;;;0.97;0.40;;;8.90;99.90;;;;;;5048482;28;20824;-46
2023/12/24 09:55:56;;;;;;;1.00;0.40;;;8.90;99.90;;;;;;5036865;28;20477;-48
2023/12/24 09:58:24;;;;;;;1.10;0.30;;;8.90;99.90;;;;;;5040498;28;20854;-46
2023/12/24 10:00:53;;;;;;;1.00;0.30;;;8.90;99.90;;;;;;5045842;28;20845;-45
2023/12/24 10:03:21;;;;;;;1.00;0.37;;;8.90;99.90;;;;;;5045998;28;20449;-48
2023/12/24 10:06:05;;;;;;;1.00;0.30;;;8.90;99.90;;;;;;5055728;28;20986;-47
2023/12/24 10:08:33;;;;;;;0.93;0.37;;;8.90;99.90;;;;;;5046224;28;20446;-47
2023/12/24 10:11:16;;;;;;;3.23;0.40;;;8.90;99.90;;;;;;5047021;28;20455;-46
2023/12/24 10:13:44;;;;;;;1.00;0.40;;;8.90;99.90;;;;;;5040343;28;20444;-48
2023/12/24 10:16:13;;;;;;;1.00;0.50;;;8.90;99.90;;;;;;5044975;28;20459;-48
2023/12/24 10:18:49;;;;;;;1.40;0.40;;;8.90;99.90;;;;;;5047090;28;20196;-47
2023/12/24 10:21:19;;;;;;;0.80;0.30;;;8.90;99.90;;;;;;5039228;28;20486;-47
2023/12/24 10:23:47;;;;;;;0.80;0.30;;;9.00;99.90;;;;;;5044466;28;20800;-48
2023/12/24 10:26:16;;;;;;;1.00;0.30;;;8.90;99.90;;;;;;5060313;28;20557;-48
2023/12/24 10:28:51;;;;;;;0.90;0.40;;;8.90;99.90;;;;;;5047593;28;20442;-49
2023/12/24 10:31:28;;;;;;;0.93;0.37;;;8.90;99.90;;;;;;5048085;28;20487;-48
2023/12/24 10:34:00;;;;;;;0.90;0.40;;;8.90;99.90;;;;;;5051607;28;20944;-50
2023/12/24 10:36:30;;;;;;;0.90;0.30;;;8.90;99.90;;;;;;5042755;28;20479;-48
2023/12/24 10:38:58;;;;;;;1.07;0.40;;;8.90;99.90;;;;;;5042719;28;20742;-48
2023/12/24 10:41:26;;;;;;;0.97;0.50;;;8.90;99.90;;;;;;5055687;28;20462;-47
2023/12/24 10:43:54;;;;;;;1.03;0.30;;;8.90;99.90;;;;;;5044095;28;20531;-49
2023/12/24 10:46:22;;;;;;;1.00;0.37;;;8.90;99.90;;;;;;5051532;28;20519;-48
2023/12/24 10:48:50;;;;;;;1.00;0.40;;;8.90;99.90;;;;;;5045394;28;20947;-48
2023/12/24 10:51:20;;;;;;;1.00;0.30;;;8.90;99.90;;;;;;5041809;28;20561;-50
2023/12/24 10:53:50;;;;;;;4.83;0.40;;;8.90;99.90;;;;;;5044222;28;20428;-46
2023/12/24 10:56:25;;;;;;;1.40;0.40;;;9.00;99.90;;;;;;5057016;28;20562;-45
2023/12/24 10:59:01;;;;;;;0.90;0.30;;;9.00;99.90;;;;;;5053176;28;20461;-48
2023/12/24 11:01:30;;;;;;;0.90;0.30;;;9.00;99.90;;;;;;5052081;28;20458;-46
2023/12/24 11:03:58;;;;;;;1.03;0.40;;;9.00;99.90;;;;;;5057075;28;20803;-48
2023/12/24 11:06:45;;;;;;;1.20;0.50;;;9.00;99.90;;;;;;5050366;28;20503;-48
2023/12/24 11:09:44;;;;;;;0.97;0.40;;;8.90;99.90;;;;;;5052447;28;20478;-49
2023/12/24 11:12:31;;;;;;;1.00;0.40;;;8.90;99.90;;;;;;5050150;28;20456;-47
2023/12/24 11:14:59;;;;;;;1.10;0.30;;;9.00;99.90;;;;;;5065916;28;20835;-48
2023/12/24 11:17:49;;;;;;;0.90;0.30;;;8.90;99.90;;;;;;5055124;28;20462;-47
2023/12/24 11:20:31;;;;;;;1.43;0.50;;;9.00;99.90;;;;;;5057513;28;20888;-49
2023/12/24 11:23:13;;;;;;;1.10;0.50;;;8.90;99.90;;;;;;5054041;28;20470;-49
2023/12/24 11:25:44;;;;;;;1.00;0.30;;;9.00;99.90;;;;;;5044710;28;20458;-47
2023/12/24 11:28:13;;;;;;;0.90;0.30;;;9.00;99.90;;;;;;5048702;28;20440;-48
2023/12/24 11:31:03;;;;;;;0.87;0.40;;;9.00;99.90;;;;;;5056590;28;20468;-47
2023/12/24 11:33:48;;;;;;;0.90;0.30;;;9.00;99.90;;;;;;5051346;28;20448;-49
2023/12/24 11:36:18;;;;;;;1.47;0.40;;;9.00;99.90;;;;;;5034532;28;20490;-49
2023/12/24 11:38:46;;;;;;;0.80;0.30;;;9.00;99.90;;;;;;5048115;28;20466;-46
2023/12/24 11:41:21;;;;;;;1.50;0.40;;;9.00;99.90;;;;;;5050341;28;20546;-47
2023/12/24 11:43:54;;;;;;;1.00;0.30;;;9.00;99.90;;;;;;5042242;28;20534;-47
2023/12/24 11:46:23;;;;;;;1.27;0.33;;;9.00;99.90;;;;;;5052390;28;20458;-45
2023/12/24 11:48:51;;;;;;;0.90;0.37;;;9.00;99.90;;;;;;5050700;28;20448;-47
2023/12/24 11:51:23;;;;;;;1.10;0.33;;;8.90;99.90;;;;;;5052014;28;20789;-47
2023/12/24 11:53:59;;;;;;;0.90;0.37;;;9.00;99.90;;;;;;5053566;28;20755;-47
2023/12/24 11:56:31;;;;;;;0.90;0.30;;;8.90;99.90;;;;;;5050437;28;20471;-47
2023/12/24 11:59:01;;;;;;;0.90;0.30;;;9.00;99.90;;;;;;5052179;28;20474;-47
2023/12/24 12:01:31;;;;;;;1.07;0.33;;;9.00;99.90;;;;;;5053327;28;20907;-46
2023/12/24 12:04:00;;;;;;;0.87;0.33;;;9.00;99.90;;;;;;5060856;28;20430;-47
2023/12/24 12:06:29;;;;;;;1.03;0.30;;;9.00;99.90;;;;;;5056395;28;20474;-46
2023/12/24 12:08:58;;;;;;;0.90;0.33;;;9.00;99.90;;;;;;5048764;28;21053;-47
2023/12/24 12:11:26;;;;;;;1.30;0.37;;;9.00;99.90;;;;;;5054540;28;21050;-46
2023/12/24 12:13:58;;;;;;;1.27;0.37;;;9.00;99.90;;;;;;5041286;28;21038;-50
2023/12/24 12:16:26;;;;;;;1.77;0.40;;;9.00;99.90;;;;;;5063775;28;20900;-48
2023/12/24 12:18:54;;;;;;;0.90;0.40;;;9.00;99.90;;;;;;5046078;28;20465;-48
2023/12/24 12:21:23;;;;;;;1.47;0.50;;;9.00;99.90;;;;;;5046872;28;20465;-44
2023/12/24 12:23:51;;;;;;;0.97;0.47;;;9.00;99.90;;;;;;5063681;28;20435;-47
2023/12/24 12:26:19;;;;;;;0.70;0.30;;;9.00;99.90;;;;;;5036375;28;20905;-47
2023/12/24 12:28:47;;;;;;;1.07;0.40;;;9.30;99.90;;;;;;5042424;28;20452;-55
2023/12/24 12:31:17;;;;;;;0.70;0.33;;;9.30;99.90;;;;;;5050090;28;20488;-50
2023/12/24 12:33:45;;;;;;;1.00;0.37;;;9.30;99.90;;;;;;5060431;28;20442;-48
2023/12/24 12:36:17;;;;;;;1.77;0.50;;;9.30;99.90;;;;;;5055537;28;20996;-49
2023/12/24 12:38:45;;;;;;;0.90;0.30;;;9.20;99.90;;;;;;5049253;28;20431;-49
2023/12/24 12:41:13;;;;;;;1.73;0.50;;;9.20;99.90;;;;;;5041385;28;20892;-46
2023/12/24 12:43:41;;;;;;;1.00;0.50;;;9.20;99.90;;;;;;5046445;28;20477;-50
2023/12/24 12:46:10;;;;;;;2.50;0.60;;;9.20;99.90;;;;;;5040916;28;20482;-49
2023/12/24 12:48:40;;;;;;;1.83;0.30;;;9.20;99.90;;;;;;5033735;28;20886;-45
2023/12/24 12:51:09;;;;;;;1.30;0.43;;;9.20;99.90;;;;;;5045648;28;20455;-48
2023/12/24 12:53:38;;;;;;;0.90;0.40;;;9.10;99.90;;;;;;5054097;28;20516;-47
2023/12/24 12:56:07;;;;;;;1.00;0.30;;;9.10;99.90;;;;;;5059031;28;20462;-47
2023/12/24 12:58:36;;;;;;;0.90;0.30;;;9.10;99.90;;;;;;5056056;28;20552;-47
2023/12/24 13:01:04;;;;;;;0.80;0.40;;;9.10;99.90;;;;;;5039583;28;20972;-50
2023/12/24 13:03:35;;;;;;;0.90;0.40;;;9.20;99.90;;;;;;5061869;28;20437;-46
2023/12/24 13:06:12;;;;;;;1.20;0.50;;;9.20;99.90;;;;;;5042511;28;20889;-47
2023/12/24 13:08:41;;;;;;;1.00;0.40;;;9.20;99.90;;;;;;5048749;28;20428;-47